Pocahontas, TN (38061)

10:10 PM CST on December 07, 2016 (GMT -0600)
Second Eden | | Change Station

Elev 564 ft 35.03 °N, 88.96 °W | Updated 14 seconds ago

Overcast
Overcast
40.6 °F
Feels Like 41 °F
N
0.2
Wind Variable Wind from SSE
Gusts 2.5 mph

Today
High -- | Low -- °F
--% Chance of Precip.
Yesterday
High -- | Low -- °F
Precip. -- in
Pressure 30.22 in
Visibility 10.0 miles
Clouds Mostly Cloudy 7000 ft
Overcast 10000 ft
Windchill 41 °F
Dew Point 32 °F
Humidity 71%
Rainfall 0.00 in
Snow Depth Not available.
6:50 AM 4:43 PM
First Quarter, 59% visible
METAR KCRX 080355Z AUTO 32004KT 10SM BKN070 OVC100 05/01 A3022 RMK AO2
Pressure 30.22 in
Visibility 10.0 miles
Clouds Mostly Cloudy 7000 ft
Overcast 10000 ft
Windchill 41 °F
Dew Point 32 °F
Humidity 71%
Rainfall 0.00 in
Snow Depth Not available.
6:50 AM 4:43 PM
First Quarter, 59% visible
METAR KCRX 080355Z AUTO 32004KT 10SM BKN070 OVC100 05/01 A3022 RMK AO2

10-Day Weather Forecast

Almanac

Astronomy

Dec. 07, 2016 Rise Set
Actual Time
Civil Twilight
Nautical Twilight
Astronomical Twilight
Moon
Length of Visible Light
Length of Day
Tomorrow will be .
, % of the Moon is Illuminated

Today's Extremes

State Highs State Lows

Community

WunderPhotos

Upload Photos

1,956,259 photos uploaded!

WunderBlog® & News

Nearby

Air Quality

  Air Quality AQ Index Pollutant
Not available.

Snow Depth

Station Depth Elevation

Earthquake Activity

City Distance Mag. Time & Date
Minimum magnitude displayed is 2.5.

Coastal Water Temperatures

Place Temperature

Stations

Nearby Weather Stations

Station Location Temp. Windchill Dew Point Humidity Wind Precip. Elev Updated Type
                   

Watches & Warnings

There are currently no watches in effect.